Date,TemperatureHighF,TemperatureAvgF,TemperatureLowF,DewpointHighF,DewpointAvgF,DewpointLowF,HumidityHigh,HumidityAvg,HumidityLow,PressureMaxIn,PressureMinIn,WindSpeedMaxMPH,WindSpeedAvgMPH,GustSpeedMaxMPH,PrecipitationSumIn
2013-8-1,95.4,75.2,62.2,67.1,62.7,60.0,95,69,35,29.81,29.71,3,0,0,0.00
2013-8-2,93.6,77.4,68.9,71.9,67.1,61.5,93,72,47,29.73,29.62,5,2,0,0.89
2013-8-3,92.8,73.3,62.6,66.4,61.3,55.8,93,69,36,29.89,29.72,5,0,0,0.00
2013-8-4,94.5,72.2,59.2,60.9,56.9,51.9,84,62,27,29.95,29.86,4,0,0,0.00
2013-8-5,79.0,70.0,61.2,68.1,62.7,57.0,90,78,58,29.87,29.63,4,0,0,0.20
2013-8-6,100.4,77.8,66.6,76.1,69.6,64.2,93,78,44,29.67,29.56,4,0,0,0.00
2013-8-7,96.6,79.9,70.2,78.4,71.6,64.8,90,77,51,29.70,29.56,5,0,0,0.00
2013-8-8,87.1,74.1,64.9,69.0,65.2,60.3,90,75,55,29.76,29.69,8,1,0,0.00
2013-8-9,90.3,74.9,59.7,68.3,62.7,55.4,88,67,45,29.82,29.75,0,0,0,0.00
2013-8-10,90.5,73.0,61.2,66.5,60.5,55.4,90,67,39,29.91,29.82,5,0,0,0.00
2013-8-11,93.6,73.4,58.3,66.8,60.7,53.8,89,67,40,29.92,29.81,3,0,0,0.00
2013-8-12,88.5,75.3,67.1,72.5,66.6,61.6,88,75,58,29.82,29.65,4,0,0,0.00
2013-8-13,83.3,66.9,55.0,62.3,55.5,50.0,89,69,35,29.92,29.71,9,1,0,0.00
2013-8-14,83.5,63.3,50.9,55.8,52.0,48.4,93,70,34,29.99,29.91,4,0,0,0.00
2013-8-15,86.7,66.8,55.4,57.9,53.9,50.3,84,66,35,29.96,29.87,2,0,0,0.00
2013-8-16,93.6,70.1,56.5,60.8,57.1,52.5,90,66,30,29.95,29.89,5,1,0,0.00
2013-8-17,85.5,69.1,57.6,61.2,58.4,55.6,95,72,42,30.00,29.91,6,1,0,0.00
2013-8-18,94.3,71.2,57.7,62.1,58.4,54.5,89,67,32,29.98,29.86,3,0,0,0.00
2013-8-19,96.1,75.2,62.2,67.8,63.0,56.7,88,68,37,29.90,29.79,4,0,0,0.00
2013-8-20,93.7,77.5,66.6,68.8,65.6,61.6,84,69,42,29.88,29.79,5,0,0,0.00
2013-8-21,96.6,79.6,69.4,69.7,67.1,64.2,84,67,40,29.87,29.76,5,1,0,0.00
2013-8-22,82.9,74.7,69.3,72.9,68.0,65.6,90,80,69,29.89,29.78,7,1,0,0.20
2013-8-23,91.8,73.6,65.7,69.1,65.3,59.5,94,77,40,29.93,29.85,6,1,0,0.00
2013-8-24,97.9,76.0,60.4,70.3,64.7,57.2,90,70,40,30.01,29.91,4,0,0,0.00
2013-8-25,97.3,79.4,68.7,70.2,66.2,61.8,81,66,40,30.03,29.92,6,0,0,0.00
2013-8-26,99.3,81.8,69.3,74.7,69.7,63.3,83,68,43,29.94,29.76,5,0,0,0.00
2013-8-27,102.7,83.8,74.3,75.0,70.9,65.2,85,67,41,29.79,29.65,5,1,0,0.00
2013-8-28,105.1,84.5,74.8,79.5,71.8,64.4,87,67,44,29.77,29.65,6,0,0,0.00
2013-8-29,94.8,76.8,69.3,75.5,70.4,66.7,93,81,54,29.83,29.73,5,0,0,0.00
2013-8-30,108.9,84.1,70.7,76.9,71.3,64.7,90,69,33,29.74,29.54,8,1,0,0.00
2013-8-31,97.0,79.9,69.4,78.8,69.7,62.6,90,72,55,29.59,29.50,5,0,0,0.00